createdAt,value
2022-08-09T00:01:10.690Z,2.27
2022-08-09T00:04:05.453Z,2.23
2022-08-09T00:06:38.988Z,2.57
2022-08-09T00:09:17.877Z,3.00
2022-08-09T00:12:02.683Z,2.40
2022-08-09T00:14:38.098Z,2.07
2022-08-09T00:17:10.406Z,2.27
2022-08-09T00:20:02.083Z,3.07
2022-08-09T00:22:36.425Z,2.50
2022-08-09T00:25:10.148Z,2.70
2022-08-09T00:27:44.433Z,2.60
2022-08-09T00:30:25.214Z,2.07
2022-08-09T00:32:58.062Z,2.43
2022-08-09T00:35:29.832Z,2.60
2022-08-09T00:38:16.129Z,2.23
2022-08-09T00:40:53.958Z,2.90
2022-08-09T00:44:13.716Z,2.70
2022-08-09T00:46:44.067Z,2.37
2022-08-09T00:49:10.984Z,2.30
2022-08-09T00:51:56.141Z,2.50
2022-08-09T00:54:35.345Z,2.67
2022-08-09T00:57:10.273Z,2.53
2022-08-09T00:59:46.974Z,2.70
2022-08-09T01:02:25.477Z,2.40
2022-08-09T01:05:02.646Z,2.60
2022-08-09T01:08:00.658Z,2.13
2022-08-09T01:10:56.351Z,2.13
2022-08-09T01:13:41.990Z,2.23
2022-08-09T01:16:25.092Z,2.60
2022-08-09T01:19:02.046Z,2.50
2022-08-09T01:21:51.403Z,2.30
2022-08-09T01:24:25.485Z,2.50
2022-08-09T01:27:01.624Z,2.50
2022-08-09T01:29:56.138Z,2.27
2022-08-09T01:32:34.856Z,2.47
2022-08-09T01:35:28.765Z,2.33
2022-08-09T01:38:10.673Z,2.60
2022-08-09T01:40:53.033Z,2.50
2022-08-09T01:43:51.241Z,2.30
2022-08-09T01:46:27.488Z,2.27
2022-08-09T01:49:10.677Z,2.10
2022-08-09T01:51:53.422Z,2.40
2022-08-09T01:54:39.648Z,2.60
2022-08-09T01:57:17.709Z,2.70
2022-08-09T01:59:53.570Z,2.00
2022-08-09T02:02:32.713Z,2.20
2022-08-09T02:05:11.838Z,2.20
2022-08-09T02:08:38.992Z,2.20
2022-08-09T02:10:51.317Z,2.20
2022-08-09T02:13:25.962Z,2.40
2022-08-09T02:16:09.833Z,2.87
2022-08-09T02:18:42.965Z,2.73
2022-08-09T02:21:22.192Z,2.30
2022-08-09T02:23:55.190Z,2.30
2022-08-09T02:26:28.895Z,2.40
2022-08-09T02:29:03.385Z,2.40
2022-08-09T02:31:38.098Z,3.00
2022-08-09T02:34:25.796Z,2.60
2022-08-09T02:37:12.010Z,2.30
2022-08-09T02:39:49.787Z,3.43
2022-08-09T02:42:38.818Z,2.70
2022-08-09T02:45:16.344Z,2.90
2022-08-09T02:47:59.040Z,2.27
2022-08-09T02:50:35.258Z,2.60
2022-08-09T02:53:17.367Z,2.83
2022-08-09T02:55:59.024Z,2.67
2022-08-09T02:58:32.744Z,3.10
2022-08-09T03:01:11.005Z,2.83
2022-08-09T03:04:17.094Z,2.43
2022-08-09T03:06:40.808Z,2.73
2022-08-09T03:09:12.532Z,2.37
2022-08-09T03:12:06.138Z,2.77
2022-08-09T03:14:36.776Z,2.57
2022-08-09T03:17:08.982Z,2.50
2022-08-09T03:19:59.653Z,2.60
2022-08-09T03:22:41.789Z,2.30
2022-08-09T03:25:27.012Z,2.50
2022-08-09T03:28:11.062Z,2.73
2022-08-09T03:30:43.481Z,2.63
2022-08-09T03:33:18.829Z,2.63
2022-08-09T03:36:16.454Z,2.53
2022-08-09T03:38:44.495Z,2.30
2022-08-09T03:41:18.449Z,2.63
2022-08-09T03:44:03.574Z,2.50
2022-08-09T03:46:40.280Z,2.57
2022-08-09T03:49:12.049Z,2.80
2022-08-09T03:51:58.158Z,2.70
2022-08-09T03:54:34.650Z,2.30
2022-08-09T03:57:17.906Z,3.17
2022-08-09T03:59:55.355Z,2.70
2022-08-09T04:02:29.014Z,2.70
2022-08-09T04:05:06.757Z,2.27
2022-08-09T04:07:52.502Z,2.53
2022-08-09T04:10:29.180Z,2.60
2022-08-09T04:13:09.367Z,2.80
2022-08-09T04:16:20.236Z,3.23
2022-08-09T04:18:36.628Z,2.97
2022-08-09T04:25:39.031Z,2.37
2022-08-09T04:28:10.776Z,3.00
2022-08-09T04:30:44.985Z,2.77
2022-08-09T04:33:17.447Z,2.80
2022-08-09T04:35:49.637Z,2.27
2022-08-09T04:38:22.229Z,2.80
2022-08-09T04:40:56.287Z,2.63
2022-08-09T04:43:28.925Z,3.00
2022-08-09T04:46:07.560Z,3.23
2022-08-09T04:48:51.138Z,3.07
2022-08-09T04:51:30.123Z,3.10
2022-08-09T04:54:05.153Z,3.40
2022-08-09T04:56:36.812Z,2.80
2022-08-09T04:59:13.204Z,3.13
2022-08-09T05:01:47.370Z,2.90
2022-08-09T05:04:19.151Z,2.50
2022-08-09T05:06:50.942Z,2.70
2022-08-09T05:09:23.037Z,2.40
2022-08-09T05:11:57.270Z,2.70
2022-08-09T05:14:31.722Z,2.70
2022-08-09T05:17:05.822Z,2.80
2022-08-09T05:19:58.438Z,2.73
2022-08-09T05:22:36.257Z,3.00
2022-08-09T05:25:22.724Z,4.73
2022-08-09T05:27:55.467Z,3.17
2022-08-09T05:30:27.424Z,3.30
2022-08-09T05:33:03.084Z,3.07
2022-08-09T05:35:39.733Z,3.13
2022-08-09T05:38:21.633Z,3.33
2022-08-09T05:40:53.912Z,3.40
2022-08-09T05:43:29.047Z,3.85
2022-08-09T05:46:03.572Z,3.13
2022-08-09T05:48:35.384Z,3.90
2022-08-09T05:51:30.029Z,4.00
2022-08-09T05:54:01.620Z,4.18
2022-08-09T05:56:36.195Z,3.78
2022-08-09T05:59:07.863Z,3.17
2022-08-09T06:01:42.895Z,3.35
2022-08-09T06:04:14.774Z,3.13
2022-08-09T06:06:55.317Z,3.22
2022-08-09T06:09:54.013Z,3.63
2022-08-09T06:12:18.627Z,3.22
2022-08-09T06:14:50.320Z,3.55
2022-08-09T06:17:22.573Z,3.35
2022-08-09T06:19:54.519Z,3.10
2022-08-09T06:22:26.314Z,3.13
2022-08-09T06:25:00.731Z,3.53
2022-08-09T06:27:42.311Z,3.13
2022-08-09T06:30:16.257Z,3.17
2022-08-09T06:32:53.053Z,3.17
2022-08-09T06:35:56.586Z,2.97
2022-08-09T06:38:31.933Z,2.88
2022-08-09T06:41:18.344Z,3.20
2022-08-09T06:43:51.149Z,3.47
2022-08-09T06:46:39.944Z,2.78
2022-08-09T06:49:15.968Z,2.83
2022-08-09T06:51:48.049Z,2.65
2022-08-09T06:54:21.392Z,3.03
2022-08-09T06:56:53.008Z,3.38
2022-08-09T07:00:51.494Z,3.53
2022-08-09T07:02:16.704Z,3.33
2022-08-09T07:04:48.496Z,3.67
2022-08-09T07:08:00.650Z,3.15
2022-08-09T07:10:22.414Z,3.05
2022-08-09T07:12:57.383Z,2.80
2022-08-09T07:16:35.058Z,2.78
2022-08-09T07:18:21.279Z,3.15
2022-08-09T07:20:53.258Z,2.78
2022-08-09T07:23:24.918Z,3.00
2022-08-09T07:26:02.360Z,2.38
2022-08-09T07:28:35.612Z,2.63
2022-08-09T07:31:07.494Z,2.65
2022-08-09T07:33:53.203Z,2.88
2022-08-09T07:36:27.660Z,2.83
2022-08-09T07:39:03.339Z,2.55
2022-08-09T07:41:39.506Z,2.78
2022-08-09T07:44:11.703Z,2.75
2022-08-09T07:46:43.640Z,2.95
2022-08-09T07:49:19.277Z,3.17
2022-08-09T07:52:03.517Z,2.70
2022-08-09T07:54:38.374Z,2.45
2022-08-09T07:57:11.682Z,2.85
2022-08-09T07:59:51.924Z,2.22
2022-08-09T08:02:31.137Z,2.50
2022-08-09T08:05:03.052Z,2.65
2022-08-09T08:08:44.322Z,2.38
2022-08-09T08:10:41.232Z,2.22
2022-08-09T08:13:40.034Z,1.98
2022-08-09T08:16:31.251Z,1.80
2022-08-09T08:19:04.651Z,1.98
2022-08-09T08:21:39.779Z,2.20
2022-08-09T08:24:22.589Z,2.70
2022-08-09T08:26:56.162Z,2.40
2022-08-09T08:29:28.694Z,2.67
2022-08-09T08:32:12.415Z,2.85
2022-08-09T08:34:51.986Z,2.50
2022-08-09T08:37:41.726Z,2.30
2022-08-09T08:40:19.288Z,2.08
2022-08-09T08:42:51.477Z,2.10
2022-08-09T08:45:51.463Z,2.22
2022-08-09T08:48:29.192Z,2.30
2022-08-09T08:51:02.840Z,2.20
2022-08-09T08:53:37.303Z,2.28
2022-08-09T08:56:16.830Z,2.33
2022-08-09T08:59:01.570Z,1.58
2022-08-09T09:01:52.089Z,1.70
2022-08-09T09:04:27.201Z,1.65
2022-08-09T09:07:02.075Z,2.13
2022-08-09T09:09:57.930Z,1.88
2022-08-09T09:12:29.658Z,1.90
2022-08-09T09:15:03.371Z,2.40
2022-08-09T09:17:49.098Z,1.70
2022-08-09T09:20:25.825Z,2.20
2022-08-09T09:23:01.657Z,1.75
2022-08-09T09:26:01.464Z,2.15
2022-08-09T09:29:02.992Z,1.67
2022-08-09T09:32:03.350Z,1.80
2022-08-09T09:34:18.841Z,1.98
2022-08-09T09:36:53.340Z,1.73
2022-08-09T09:39:54.531Z,1.85
2022-08-09T09:42:24.673Z,1.73
2022-08-09T09:45:06.108Z,1.80
2022-08-09T09:47:56.224Z,1.75
2022-08-09T09:50:49.552Z,1.90
2022-08-09T09:53:44.014Z,1.60
2022-08-09T09:56:20.012Z,1.60
2022-08-09T09:59:03.557Z,1.48
2022-08-09T10:01:38.044Z,1.40
2022-08-09T10:04:22.840Z,1.35
2022-08-09T10:07:03.542Z,0.95
2022-08-09T10:09:49.132Z,1.40
2022-08-09T10:12:32.746Z,1.50
2022-08-09T10:15:17.681Z,1.30
2022-08-09T10:17:57.556Z,1.30
2022-08-09T10:20:33.033Z,1.48
2022-08-09T10:23:21.892Z,1.35
2022-08-09T10:26:07.415Z,1.33
2022-08-09T10:28:45.538Z,1.50
2022-08-09T10:34:32.915Z,1.50
2022-08-09T10:37:04.600Z,1.33
2022-08-09T10:39:49.426Z,1.48
2022-08-09T10:42:21.913Z,1.00
2022-08-09T10:45:01.255Z,1.40
2022-08-09T10:48:19.229Z,1.10
2022-08-09T10:51:06.370Z,1.13
2022-08-09T10:54:02.089Z,1.30
2022-08-09T10:56:41.226Z,1.30
2022-08-09T10:59:31.388Z,1.80
2022-08-09T11:03:13.216Z,1.40
2022-08-09T11:05:24.575Z,1.40
2022-08-09T11:08:47.622Z,1.60
2022-08-09T11:11:19.797Z,1.40
2022-08-09T11:14:38.126Z,1.33
2022-08-09T11:17:19.395Z,1.35
2022-08-09T11:20:10.019Z,1.20
2022-08-09T11:22:44.879Z,1.25
2022-08-09T11:25:25.900Z,1.55
2022-08-09T11:28:03.824Z,1.35
2022-08-09T11:30:38.466Z,1.20
2022-08-09T11:33:19.735Z,1.20
2022-08-09T11:35:58.874Z,1.52
2022-08-09T11:38:33.923Z,1.40
2022-08-09T11:41:13.732Z,1.38
2022-08-09T11:43:49.170Z,1.23
2022-08-09T11:46:26.728Z,1.30
2022-08-09T11:49:06.526Z,1.20
2022-08-09T11:53:28.000Z,1.30
2022-08-09T11:55:34.903Z,1.35
2022-08-09T11:58:32.738Z,1.40
2022-08-09T12:01:15.463Z,1.30
2022-08-09T12:04:02.296Z,1.20
2022-08-09T12:06:35.836Z,1.10
2022-08-09T12:09:15.217Z,1.60
2022-08-09T12:12:02.930Z,1.55
2022-08-09T12:15:04.244Z,1.58
2022-08-09T12:17:43.025Z,1.60
2022-08-09T12:20:26.881Z,1.52
2022-08-09T12:23:01.225Z,1.30
2022-08-09T12:25:37.150Z,1.50
2022-08-09T12:29:11.582Z,1.60
2022-08-09T12:31:58.087Z,1.60
2022-08-09T12:34:38.549Z,1.40
2022-08-09T12:37:23.507Z,1.30
2022-08-09T12:40:09.429Z,1.40
2022-08-09T12:42:44.469Z,1.40
2022-08-09T12:45:35.077Z,1.35
2022-08-09T12:48:20.006Z,1.50
2022-08-09T12:51:03.798Z,1.35
2022-08-09T12:53:38.769Z,1.42
2022-08-09T12:56:34.893Z,1.10
2022-08-09T12:59:16.898Z,1.33
2022-08-09T13:02:09.712Z,1.27
2022-08-09T13:04:41.577Z,1.38
2022-08-09T13:07:14.839Z,1.48
2022-08-09T13:09:55.488Z,1.20
2022-08-09T13:12:32.611Z,1.10
2022-08-09T13:15:11.866Z,1.30
2022-08-09T13:18:03.567Z,1.27
2022-08-09T13:20:37.721Z,1.27
2022-08-09T13:24:16.497Z,1.23
2022-08-09T13:26:36.950Z,1.20
2022-08-09T13:29:13.038Z,1.50
2022-08-09T13:32:15.021Z,1.38
2022-08-09T13:34:51.996Z,1.40
2022-08-09T13:37:51.367Z,1.10
2022-08-09T13:41:50.813Z,2.00
2022-08-09T13:43:09.962Z,1.50
2022-08-09T13:46:42.212Z,1.30
2022-08-09T13:48:38.778Z,1.23
2022-08-09T13:51:13.864Z,1.23
2022-08-09T13:53:48.343Z,1.63
2022-08-09T13:56:20.765Z,1.20
2022-08-09T13:58:57.137Z,1.30
2022-08-09T14:02:00.561Z,1.30
2022-08-09T14:04:23.883Z,1.27
2022-08-09T14:06:59.548Z,1.40
2022-08-09T14:09:34.720Z,1.20
2022-08-09T14:12:15.436Z,1.50
2022-08-09T14:14:47.550Z,1.48
2022-08-09T14:17:25.661Z,1.30
2022-08-09T14:20:05.002Z,1.50
2022-08-09T14:22:38.112Z,1.48
2022-08-09T14:25:09.971Z,1.35
2022-08-09T14:27:58.321Z,1.52
2022-08-09T14:30:36.568Z,1.52
2022-08-09T14:33:13.239Z,1.30
2022-08-09T14:35:53.472Z,1.73
2022-08-09T14:38:25.363Z,1.50
2022-08-09T14:41:04.212Z,1.55
2022-08-09T14:43:53.662Z,1.67
2022-08-09T14:46:58.275Z,1.40
2022-08-09T14:49:18.496Z,1.50
2022-08-09T14:51:58.734Z,1.70
2022-08-09T14:54:30.888Z,1.70
2022-08-09T14:57:05.707Z,1.50
2022-08-09T14:59:39.439Z,1.50
2022-08-09T15:02:11.273Z,1.73
2022-08-09T15:04:45.009Z,1.33
2022-08-09T15:07:19.503Z,1.55
2022-08-09T15:10:07.302Z,1.02
2022-08-09T15:12:45.059Z,1.40
2022-08-09T15:15:16.941Z,1.38
2022-08-09T15:17:52.340Z,1.88
2022-08-09T15:21:57.166Z,2.03
2022-08-09T15:24:03.093Z,1.65
2022-08-09T15:26:09.193Z,1.50
2022-08-09T15:28:54.818Z,1.48
2022-08-09T15:31:28.652Z,1.58
2022-08-09T15:34:32.906Z,1.40
2022-08-09T15:37:36.905Z,1.75
2022-08-09T15:40:14.997Z,1.60
2022-08-09T15:42:51.985Z,1.67
2022-08-09T15:45:29.445Z,1.50
2022-08-09T15:48:07.869Z,1.70
2022-08-09T15:50:53.621Z,1.42
2022-08-09T15:54:03.156Z,1.52
2022-08-09T15:56:21.621Z,1.60
2022-08-09T15:59:01.210Z,1.40
2022-08-09T16:01:35.617Z,1.55
2022-08-09T16:04:13.392Z,1.40
2022-08-09T16:06:50.673Z,1.50
2022-08-09T16:09:32.465Z,1.60
2022-08-09T16:12:14.080Z,2.00
2022-08-09T16:14:47.461Z,1.38
2022-08-09T16:17:19.639Z,1.45
2022-08-09T16:20:04.829Z,1.30
2022-08-09T16:22:42.042Z,1.55
2022-08-09T16:25:14.349Z,1.40
2022-08-09T16:27:47.900Z,1.80
2022-08-09T16:30:29.490Z,1.70
2022-08-09T16:33:11.320Z,1.73
2022-08-09T16:35:57.167Z,1.55
2022-08-09T16:38:30.235Z,1.50
2022-08-09T16:41:04.266Z,1.77
2022-08-09T16:43:40.319Z,1.55
2022-08-09T16:46:13.032Z,1.48
2022-08-09T16:48:54.741Z,1.55
2022-08-09T16:51:31.242Z,1.45
2022-08-09T16:54:25.658Z,1.55
2022-08-09T16:56:58.173Z,1.75
2022-08-09T16:59:34.650Z,1.67
2022-08-09T17:02:06.695Z,1.48
2022-08-09T17:04:38.652Z,1.80
2022-08-09T17:08:43.681Z,1.63
2022-08-09T17:10:04.149Z,1.60
2022-08-09T17:12:36.233Z,1.58
2022-08-09T17:15:31.148Z,1.60
2022-08-09T17:18:01.115Z,1.40
2022-08-09T17:20:36.318Z,1.73
2022-08-09T17:23:14.713Z,1.80
2022-08-09T17:25:53.117Z,1.63
2022-08-09T17:28:25.057Z,1.50
2022-08-09T17:30:58.685Z,1.52
2022-08-09T17:33:35.768Z,1.65
2022-08-09T17:36:14.653Z,1.40
2022-08-09T17:38:57.636Z,1.50
2022-08-09T17:41:38.502Z,1.50
2022-08-09T17:44:38.936Z,1.65
2022-08-09T17:47:04.140Z,1.50
2022-08-09T17:49:35.901Z,1.70
2022-08-09T17:52:27.149Z,1.70
2022-08-09T17:54:58.819Z,1.58
2022-08-09T17:58:03.122Z,2.03
2022-08-09T18:00:35.174Z,1.65
2022-08-09T18:03:14.134Z,1.80
2022-08-09T18:05:52.948Z,1.63
2022-08-09T18:08:27.694Z,1.98
2022-08-09T18:11:02.099Z,1.88
2022-08-09T18:13:43.500Z,1.88
2022-08-09T18:16:30.178Z,1.73
2022-08-09T18:19:04.089Z,1.60
2022-08-09T18:21:54.406Z,1.70
2022-08-09T18:24:27.694Z,1.85
2022-08-09T18:27:01.198Z,1.90
2022-08-09T18:30:41.356Z,1.80
2022-08-09T18:32:24.824Z,1.90
2022-08-09T18:34:58.465Z,1.70
2022-08-09T18:37:49.171Z,2.10
2022-08-09T18:40:26.787Z,2.10
2022-08-09T18:42:58.913Z,1.92
2022-08-09T18:46:48.616Z,1.80
2022-08-09T18:48:30.193Z,2.13
2022-08-09T18:51:04.689Z,1.90
2022-08-09T18:53:56.289Z,2.05
2022-08-09T18:56:28.570Z,2.08
2022-08-09T18:59:01.243Z,1.50
2022-08-09T19:01:45.865Z,1.92
2022-08-09T19:04:17.977Z,1.90
2022-08-09T19:07:06.635Z,2.03
2022-08-09T19:10:17.110Z,2.50
2022-08-09T19:12:31.849Z,2.05
2022-08-09T19:15:06.366Z,2.17
2022-08-09T19:17:54.560Z,2.03
2022-08-09T19:20:34.370Z,2.03
2022-08-09T19:23:16.608Z,2.20
2022-08-09T19:26:01.936Z,2.22
2022-08-09T19:28:37.967Z,2.38
2022-08-09T19:31:09.839Z,2.17
2022-08-09T19:33:42.739Z,2.10
2022-08-09T19:36:14.719Z,2.20
2022-08-09T19:38:50.198Z,2.13
2022-08-09T19:41:33.017Z,2.40
2022-08-09T19:44:07.591Z,2.13
2022-08-09T19:46:49.988Z,2.38
2022-08-09T19:50:08.755Z,2.10
2022-08-09T19:52:18.248Z,2.33
2022-08-09T19:54:50.100Z,2.35
2022-08-09T19:57:25.611Z,2.42
2022-08-09T20:00:06.565Z,2.20
2022-08-09T20:04:10.664Z,2.53
2022-08-09T20:05:46.728Z,2.42
2022-08-09T20:08:33.375Z,2.28
2022-08-09T20:11:07.140Z,2.45
2022-08-09T20:13:39.669Z,2.72
2022-08-09T20:16:38.603Z,2.45
2022-08-09T20:19:42.145Z,2.55
2022-08-09T20:21:57.503Z,2.55
2022-08-09T20:24:34.169Z,2.75
2022-08-09T20:27:08.382Z,2.20
2022-08-09T20:29:40.408Z,2.60
2022-08-09T20:32:28.840Z,2.03
2022-08-09T20:35:04.256Z,2.28
2022-08-09T20:38:22.171Z,2.50
2022-08-09T20:40:30.196Z,2.50
2022-08-09T20:43:18.519Z,2.50
2022-08-09T20:46:01.812Z,2.35
2022-08-09T20:48:45.780Z,2.50
2022-08-09T20:51:25.040Z,2.42
2022-08-09T20:53:56.782Z,2.53
2022-08-09T20:56:28.417Z,2.50
2022-08-09T20:59:02.635Z,2.45
2022-08-09T21:01:50.321Z,3.40
2022-08-09T21:05:57.637Z,2.33
2022-08-09T21:07:16.547Z,2.20
2022-08-09T21:09:56.987Z,2.30
2022-08-09T21:15:23.836Z,2.30
2022-08-09T21:18:21.318Z,2.42
2022-08-09T21:20:57.562Z,2.42
2022-08-09T21:23:47.602Z,2.22
2022-08-09T21:26:21.776Z,2.30
2022-08-09T21:28:57.064Z,2.67
2022-08-09T21:31:49.194Z,2.85
2022-08-09T21:34:29.170Z,2.50
2022-08-09T21:37:01.498Z,2.30
2022-08-09T21:39:42.035Z,2.50
2022-08-09T21:42:14.368Z,2.30
2022-08-09T21:44:46.393Z,2.60
2022-08-09T21:47:19.929Z,2.92
2022-08-09T21:49:51.561Z,2.92
2022-08-09T21:52:24.135Z,2.55
2022-08-09T21:55:03.384Z,2.70
2022-08-09T21:57:38.199Z,2.50
2022-08-09T22:00:32.724Z,2.55
2022-08-09T22:03:19.355Z,2.55
2022-08-09T22:05:51.794Z,2.70
2022-08-09T22:08:25.612Z,2.55
2022-08-09T22:11:49.646Z,2.30
2022-08-09T22:13:49.334Z,2.70
2022-08-09T22:16:22.824Z,2.70
2022-08-09T22:18:55.336Z,2.72
2022-08-09T22:21:45.272Z,2.67
2022-08-09T22:24:21.181Z,2.30
2022-08-09T22:26:56.454Z,2.50
2022-08-09T22:29:34.457Z,2.60
2022-08-09T22:32:29.743Z,2.80
2022-08-09T22:35:06.704Z,2.60
2022-08-09T22:38:07.410Z,2.85
2022-08-09T22:40:39.574Z,2.63
2022-08-09T22:44:02.190Z,2.42
2022-08-09T22:48:11.233Z,2.67
2022-08-09T22:49:10.146Z,2.25
2022-08-09T22:51:43.539Z,2.67
2022-08-09T22:54:21.608Z,2.67
2022-08-09T22:56:54.727Z,2.67
2022-08-09T22:59:56.932Z,3.03
2022-08-09T23:02:20.625Z,2.70
2022-08-09T23:04:57.071Z,2.60
2022-08-09T23:08:22.247Z,2.70
2022-08-09T23:10:43.554Z,3.28
2022-08-09T23:13:15.691Z,2.90
2022-08-09T23:16:03.018Z,2.70
2022-08-09T23:18:35.378Z,2.50
2022-08-09T23:21:07.836Z,2.70
2022-08-09T23:23:39.596Z,2.40
2022-08-09T23:26:11.268Z,3.07
2022-08-09T23:28:42.919Z,2.60
2022-08-09T23:31:14.614Z,2.57
2022-08-09T23:33:46.307Z,2.70
2022-08-09T23:36:17.990Z,2.80
2022-08-09T23:38:49.654Z,2.75
2022-08-09T23:41:27.589Z,2.87
2022-08-09T23:44:01.516Z,2.83
2022-08-09T23:46:33.285Z,2.60
2022-08-09T23:49:04.957Z,2.70
2022-08-09T23:51:36.687Z,3.10
2022-08-09T23:54:08.427Z,2.73
2022-08-09T23:56:54.756Z,2.60
2022-08-09T23:59:50.836Z,3.10
